sensor_id;sensor_type;location;lat;lon;timestamp;P1;durP1;ratioP1;P2;durP2;ratioP2
66521;SDS011;53349;53.538;8.584;2023-09-08T00:02:12;7.60;;;5.40;;
66521;SDS011;53349;53.538;8.584;2023-09-08T00:04:39;9.88;;;5.93;;
66521;SDS011;53349;53.538;8.584;2023-09-08T00:07:05;8.43;;;5.45;;
66521;SDS011;53349;53.538;8.584;2023-09-08T00:09:33;11.25;;;5.88;;
66521;SDS011;53349;53.538;8.584;2023-09-08T00:11:58;7.88;;;5.53;;
66521;SDS011;53349;53.538;8.584;2023-09-08T00:14:24;6.77;;;5.40;;
66521;SDS011;53349;53.538;8.584;2023-09-08T00:16:51;7.90;;;5.72;;
66521;SDS011;53349;53.538;8.584;2023-09-08T00:19:20;8.63;;;5.50;;
66521;SDS011;53349;53.538;8.584;2023-09-08T00:21:47;10.93;;;5.72;;
66521;SDS011;53349;53.538;8.584;2023-09-08T00:24:15;9.50;;;5.68;;
66521;SDS011;53349;53.538;8.584;2023-09-08T00:26:41;8.20;;;5.53;;
66521;SDS011;53349;53.538;8.584;2023-09-08T00:29:06;12.48;;;6.20;;
66521;SDS011;53349;53.538;8.584;2023-09-08T00:31:33;9.88;;;6.05;;
66521;SDS011;53349;53.538;8.584;2023-09-08T00:33:58;8.40;;;5.60;;
66521;SDS011;53349;53.538;8.584;2023-09-08T00:36:24;9.00;;;5.80;;
66521;SDS011;53349;53.538;8.584;2023-09-08T00:38:49;7.60;;;5.53;;
66521;SDS011;53349;53.538;8.584;2023-09-08T00:41:15;8.00;;;5.40;;
66521;SDS011;53349;53.538;8.584;2023-09-08T00:43:40;12.18;;;5.93;;
66521;SDS011;53349;53.538;8.584;2023-09-08T00:46:06;8.67;;;5.80;;
66521;SDS011;53349;53.538;8.584;2023-09-08T00:48:32;8.00;;;5.57;;
66521;SDS011;53349;53.538;8.584;2023-09-08T00:50:57;8.33;;;5.40;;
66521;SDS011;53349;53.538;8.584;2023-09-08T00:53:23;8.47;;;5.77;;
66521;SDS011;53349;53.538;8.584;2023-09-08T00:55:49;8.55;;;5.20;;
66521;SDS011;53349;53.538;8.584;2023-09-08T00:58:15;9.23;;;5.30;;
66521;SDS011;53349;53.538;8.584;2023-09-08T01:00:41;9.10;;;6.13;;
66521;SDS011;53349;53.538;8.584;2023-09-08T01:03:07;9.30;;;5.93;;
66521;SDS011;53349;53.538;8.584;2023-09-08T01:05:32;9.33;;;5.63;;
66521;SDS011;53349;53.538;8.584;2023-09-08T01:07:59;10.13;;;5.90;;
66521;SDS011;53349;53.538;8.584;2023-09-08T01:10:25;7.75;;;5.38;;
66521;SDS011;53349;53.538;8.584;2023-09-08T01:12:51;8.30;;;5.67;;
66521;SDS011;53349;53.538;8.584;2023-09-08T01:15:16;8.32;;;5.55;;
66521;SDS011;53349;53.538;8.584;2023-09-08T01:17:41;8.60;;;5.77;;
66521;SDS011;53349;53.538;8.584;2023-09-08T01:20:16;10.00;;;6.30;;
66521;SDS011;53349;53.538;8.584;2023-09-08T01:25:57;12.25;;;6.28;;
66521;SDS011;53349;53.538;8.584;2023-09-08T01:28:27;10.48;;;6.18;;
66521;SDS011;53349;53.538;8.584;2023-09-08T01:30:55;8.63;;;5.77;;
66521;SDS011;53349;53.538;8.584;2023-09-08T01:33:21;9.63;;;5.88;;
66521;SDS011;53349;53.538;8.584;2023-09-08T01:35:47;9.15;;;5.90;;
66521;SDS011;53349;53.538;8.584;2023-09-08T01:38:13;9.10;;;5.93;;
66521;SDS011;53349;53.538;8.584;2023-09-08T01:40:38;9.87;;;5.97;;
66521;SDS011;53349;53.538;8.584;2023-09-08T01:43:04;11.43;;;6.10;;
66521;SDS011;53349;53.538;8.584;2023-09-08T01:45:31;11.63;;;6.38;;
66521;SDS011;53349;53.538;8.584;2023-09-08T01:47:57;9.60;;;5.93;;
66521;SDS011;53349;53.538;8.584;2023-09-08T01:50:24;9.27;;;6.00;;
66521;SDS011;53349;53.538;8.584;2023-09-08T01:52:49;11.20;;;6.18;;
66521;SDS011;53349;53.538;8.584;2023-09-08T01:55:16;8.43;;;5.55;;
66521;SDS011;53349;53.538;8.584;2023-09-08T01:57:43;9.88;;;6.30;;
66521;SDS011;53349;53.538;8.584;2023-09-08T02:00:09;8.57;;;5.87;;
66521;SDS011;53349;53.538;8.584;2023-09-08T02:02:36;9.63;;;5.88;;
66521;SDS011;53349;53.538;8.584;2023-09-08T02:05:02;9.00;;;6.20;;
66521;SDS011;53349;53.538;8.584;2023-09-08T02:07:27;9.60;;;6.00;;
66521;SDS011;53349;53.538;8.584;2023-09-08T02:09:53;12.30;;;6.33;;
66521;SDS011;53349;53.538;8.584;2023-09-08T02:12:20;9.17;;;5.90;;
66521;SDS011;53349;53.538;8.584;2023-09-08T02:14:46;9.68;;;6.25;;
66521;SDS011;53349;53.538;8.584;2023-09-08T02:17:12;9.57;;;6.10;;
66521;SDS011;53349;53.538;8.584;2023-09-08T02:19:37;12.23;;;6.47;;
66521;SDS011;53349;53.538;8.584;2023-09-08T02:22:02;8.47;;;6.20;;
66521;SDS011;53349;53.538;8.584;2023-09-08T02:24:29;10.50;;;6.67;;
66521;SDS011;53349;53.538;8.584;2023-09-08T02:26:55;9.10;;;6.30;;
66521;SDS011;53349;53.538;8.584;2023-09-08T02:29:20;12.67;;;7.30;;
66521;SDS011;53349;53.538;8.584;2023-09-08T02:31:47;10.43;;;6.53;;
66521;SDS011;53349;53.538;8.584;2023-09-08T02:34:14;10.88;;;6.22;;
66521;SDS011;53349;53.538;8.584;2023-09-08T02:36:45;10.45;;;6.68;;
66521;SDS011;53349;53.538;8.584;2023-09-08T02:39:14;10.30;;;6.50;;
66521;SDS011;53349;53.538;8.584;2023-09-08T02:41:39;9.87;;;6.00;;
66521;SDS011;53349;53.538;8.584;2023-09-08T02:44:06;9.65;;;6.30;;
66521;SDS011;53349;53.538;8.584;2023-09-08T02:46:31;10.93;;;6.37;;
66521;SDS011;53349;53.538;8.584;2023-09-08T02:48:57;9.73;;;6.38;;
66521;SDS011;53349;53.538;8.584;2023-09-08T02:51:22;10.55;;;6.68;;
66521;SDS011;53349;53.538;8.584;2023-09-08T02:53:48;10.13;;;6.40;;
66521;SDS011;53349;53.538;8.584;2023-09-08T02:56:13;9.57;;;6.17;;
66521;SDS011;53349;53.538;8.584;2023-09-08T02:58:38;11.17;;;6.30;;
66521;SDS011;53349;53.538;8.584;2023-09-08T03:03:37;9.80;;;6.28;;
66521;SDS011;53349;53.538;8.584;2023-09-08T03:06:02;11.00;;;7.03;;
66521;SDS011;53349;53.538;8.584;2023-09-08T03:08:29;10.40;;;6.60;;
66521;SDS011;53349;53.538;8.584;2023-09-08T03:10:56;10.15;;;6.57;;
66521;SDS011;53349;53.538;8.584;2023-09-08T03:13:23;10.10;;;6.60;;
66521;SDS011;53349;53.538;8.584;2023-09-08T03:15:50;9.87;;;6.30;;
66521;SDS011;53349;53.538;8.584;2023-09-08T03:18:16;11.15;;;6.57;;
66521;SDS011;53349;53.538;8.584;2023-09-08T03:20:41;10.80;;;6.60;;
66521;SDS011;53349;53.538;8.584;2023-09-08T03:23:07;11.33;;;6.40;;
66521;SDS011;53349;53.538;8.584;2023-09-08T03:25:32;9.73;;;6.20;;
66521;SDS011;53349;53.538;8.584;2023-09-08T03:28:00;10.33;;;6.27;;
66521;SDS011;53349;53.538;8.584;2023-09-08T03:30:26;10.65;;;6.80;;
66521;SDS011;53349;53.538;8.584;2023-09-08T03:32:51;11.07;;;6.40;;
66521;SDS011;53349;53.538;8.584;2023-09-08T03:35:17;11.17;;;6.80;;
66521;SDS011;53349;53.538;8.584;2023-09-08T03:37:43;10.80;;;7.00;;
66521;SDS011;53349;53.538;8.584;2023-09-08T03:40:09;12.52;;;8.38;;
66521;SDS011;53349;53.538;8.584;2023-09-08T03:42:35;10.88;;;7.45;;
66521;SDS011;53349;53.538;8.584;2023-09-08T03:45:02;11.00;;;6.90;;
66521;SDS011;53349;53.538;8.584;2023-09-08T03:47:29;10.20;;;6.50;;
66521;SDS011;53349;53.538;8.584;2023-09-08T03:49:55;10.85;;;6.65;;
66521;SDS011;53349;53.538;8.584;2023-09-08T03:52:20;10.83;;;6.60;;
66521;SDS011;53349;53.538;8.584;2023-09-08T03:54:46;10.52;;;7.00;;
66521;SDS011;53349;53.538;8.584;2023-09-08T03:57:11;10.77;;;6.90;;
66521;SDS011;53349;53.538;8.584;2023-09-08T03:59:36;10.57;;;6.73;;
66521;SDS011;53349;53.538;8.584;2023-09-08T04:02:03;10.90;;;7.10;;
66521;SDS011;53349;53.538;8.584;2023-09-08T04:04:29;11.57;;;7.47;;
66521;SDS011;53349;53.538;8.584;2023-09-08T04:06:55;9.52;;;6.75;;
66521;SDS011;53349;53.538;8.584;2023-09-08T04:09:20;10.43;;;7.20;;
66521;SDS011;53349;53.538;8.584;2023-09-08T04:11:46;10.70;;;7.67;;
66521;SDS011;53349;53.538;8.584;2023-09-08T04:14:11;10.80;;;7.00;;
66521;SDS011;53349;53.538;8.584;2023-09-08T04:16:38;11.07;;;6.95;;
66521;SDS011;53349;53.538;8.584;2023-09-08T04:19:03;11.03;;;7.00;;
66521;SDS011;53349;53.538;8.584;2023-09-08T04:21:29;10.52;;;6.80;;
66521;SDS011;53349;53.538;8.584;2023-09-08T04:23:55;11.18;;;7.30;;
66521;SDS011;53349;53.538;8.584;2023-09-08T04:26:20;9.15;;;6.47;;
66521;SDS011;53349;53.538;8.584;2023-09-08T04:28:46;9.83;;;6.90;;
66521;SDS011;53349;53.538;8.584;2023-09-08T04:31:11;13.50;;;7.50;;
66521;SDS011;53349;53.538;8.584;2023-09-08T04:33:38;11.80;;;7.03;;
66521;SDS011;53349;53.538;8.584;2023-09-08T04:36:03;11.35;;;7.20;;
66521;SDS011;53349;53.538;8.584;2023-09-08T04:38:29;12.60;;;8.27;;
66521;SDS011;53349;53.538;8.584;2023-09-08T04:40:54;15.77;;;8.52;;
66521;SDS011;53349;53.538;8.584;2023-09-08T04:43:19;12.33;;;7.70;;
66521;SDS011;53349;53.538;8.584;2023-09-08T04:45:46;10.00;;;7.10;;
66521;SDS011;53349;53.538;8.584;2023-09-08T04:48:11;12.68;;;7.75;;
66521;SDS011;53349;53.538;8.584;2023-09-08T04:50:37;12.27;;;7.63;;
66521;SDS011;53349;53.538;8.584;2023-09-08T04:53:03;10.87;;;7.30;;
66521;SDS011;53349;53.538;8.584;2023-09-08T04:55:30;10.82;;;7.55;;
66521;SDS011;53349;53.538;8.584;2023-09-08T04:57:57;11.90;;;7.53;;
66521;SDS011;53349;53.538;8.584;2023-09-08T05:00:23;13.13;;;8.10;;
66521;SDS011;53349;53.538;8.584;2023-09-08T05:02:49;12.30;;;7.65;;
66521;SDS011;53349;53.538;8.584;2023-09-08T05:05:16;10.80;;;7.30;;
66521;SDS011;53349;53.538;8.584;2023-09-08T05:07:42;10.60;;;7.40;;
66521;SDS011;53349;53.538;8.584;2023-09-08T05:10:07;12.00;;;7.20;;
66521;SDS011;53349;53.538;8.584;2023-09-08T05:12:34;11.13;;;7.35;;
66521;SDS011;53349;53.538;8.584;2023-09-08T05:15:00;13.48;;;7.90;;
66521;SDS011;53349;53.538;8.584;2023-09-08T05:17:25;13.23;;;7.27;;
66521;SDS011;53349;53.538;8.584;2023-09-08T05:19:53;12.02;;;8.10;;
66521;SDS011;53349;53.538;8.584;2023-09-08T05:22:19;11.80;;;7.10;;
66521;SDS011;53349;53.538;8.584;2023-09-08T05:24:50;11.85;;;7.50;;
66521;SDS011;53349;53.538;8.584;2023-09-08T05:27:16;11.30;;;7.68;;
66521;SDS011;53349;53.538;8.584;2023-09-08T05:29:43;10.70;;;7.50;;
66521;SDS011;53349;53.538;8.584;2023-09-08T05:32:09;11.95;;;7.75;;
66521;SDS011;53349;53.538;8.584;2023-09-08T05:34:35;10.77;;;7.38;;
66521;SDS011;53349;53.538;8.584;2023-09-08T05:37:00;11.30;;;7.73;;
66521;SDS011;53349;53.538;8.584;2023-09-08T05:39:26;13.50;;;7.60;;
66521;SDS011;53349;53.538;8.584;2023-09-08T05:41:51;11.73;;;7.87;;
66521;SDS011;53349;53.538;8.584;2023-09-08T05:44:16;12.57;;;8.00;;
66521;SDS011;53349;53.538;8.584;2023-09-08T05:46:42;13.73;;;7.70;;
66521;SDS011;53349;53.538;8.584;2023-09-08T05:49:09;10.80;;;7.32;;
66521;SDS011;53349;53.538;8.584;2023-09-08T05:51:34;12.32;;;7.68;;
66521;SDS011;53349;53.538;8.584;2023-09-08T05:54:01;11.65;;;7.40;;
66521;SDS011;53349;53.538;8.584;2023-09-08T05:56:30;14.10;;;8.27;;
66521;SDS011;53349;53.538;8.584;2023-09-08T05:58:56;12.03;;;7.63;;
66521;SDS011;53349;53.538;8.584;2023-09-08T06:01:21;11.93;;;7.63;;
66521;SDS011;53349;53.538;8.584;2023-09-08T06:03:47;13.23;;;7.70;;
66521;SDS011;53349;53.538;8.584;2023-09-08T06:06:13;15.33;;;8.03;;
66521;SDS011;53349;53.538;8.584;2023-09-08T06:08:39;11.88;;;7.45;;
66521;SDS011;53349;53.538;8.584;2023-09-08T06:11:05;12.35;;;7.85;;
66521;SDS011;53349;53.538;8.584;2023-09-08T06:13:32;12.52;;;7.60;;
66521;SDS011;53349;53.538;8.584;2023-09-08T06:15:58;11.07;;;7.40;;
66521;SDS011;53349;53.538;8.584;2023-09-08T06:18:23;11.60;;;8.05;;
66521;SDS011;53349;53.538;8.584;2023-09-08T06:20:49;11.93;;;7.97;;
66521;SDS011;53349;53.538;8.584;2023-09-08T06:23:19;10.73;;;7.57;;
66521;SDS011;53349;53.538;8.584;2023-09-08T06:25:48;11.10;;;7.50;;
66521;SDS011;53349;53.538;8.584;2023-09-08T06:28:21;11.95;;;7.63;;
66521;SDS011;53349;53.538;8.584;2023-09-08T06:30:48;10.37;;;7.40;;
66521;SDS011;53349;53.538;8.584;2023-09-08T06:33:13;11.73;;;7.18;;
66521;SDS011;53349;53.538;8.584;2023-09-08T06:35:38;10.40;;;7.07;;
66521;SDS011;53349;53.538;8.584;2023-09-08T06:38:04;10.32;;;6.93;;
66521;SDS011;53349;53.538;8.584;2023-09-08T06:40:29;10.43;;;7.13;;
66521;SDS011;53349;53.538;8.584;2023-09-08T06:42:55;9.90;;;7.10;;
66521;SDS011;53349;53.538;8.584;2023-09-08T06:45:20;11.43;;;7.27;;
66521;SDS011;53349;53.538;8.584;2023-09-08T06:47:46;12.75;;;7.50;;
66521;SDS011;53349;53.538;8.584;2023-09-08T06:50:12;11.17;;;7.40;;
66521;SDS011;53349;53.538;8.584;2023-09-08T06:52:40;11.48;;;7.32;;
66521;SDS011;53349;53.538;8.584;2023-09-08T06:55:05;9.50;;;6.47;;
66521;SDS011;53349;53.538;8.584;2023-09-08T06:57:31;12.43;;;7.30;;
66521;SDS011;53349;53.538;8.584;2023-09-08T06:59:56;11.82;;;7.07;;
66521;SDS011;53349;53.538;8.584;2023-09-08T07:02:22;12.17;;;7.50;;
66521;SDS011;53349;53.538;8.584;2023-09-08T07:04:47;13.00;;;7.20;;
66521;SDS011;53349;53.538;8.584;2023-09-08T07:07:14;10.87;;;7.63;;
66521;SDS011;53349;53.538;8.584;2023-09-08T07:09:39;10.27;;;7.25;;
66521;SDS011;53349;53.538;8.584;2023-09-08T07:12:06;11.73;;;7.50;;
66521;SDS011;53349;53.538;8.584;2023-09-08T07:14:31;13.50;;;7.53;;
66521;SDS011;53349;53.538;8.584;2023-09-08T07:16:57;10.33;;;7.10;;
66521;SDS011;53349;53.538;8.584;2023-09-08T07:19:22;11.13;;;7.30;;
66521;SDS011;53349;53.538;8.584;2023-09-08T07:21:49;10.73;;;7.10;;
66521;SDS011;53349;53.538;8.584;2023-09-08T07:24:18;11.88;;;7.35;;
66521;SDS011;53349;53.538;8.584;2023-09-08T07:26:43;13.93;;;7.40;;
66521;SDS011;53349;53.538;8.584;2023-09-08T07:29:10;9.70;;;6.90;;
66521;SDS011;53349;53.538;8.584;2023-09-08T07:31:36;11.32;;;6.63;;
66521;SDS011;53349;53.538;8.584;2023-09-08T07:34:02;10.80;;;7.30;;
66521;SDS011;53349;53.538;8.584;2023-09-08T07:36:27;10.07;;;6.90;;
66521;SDS011;53349;53.538;8.584;2023-09-08T07:38:53;12.57;;;7.40;;
66521;SDS011;53349;53.538;8.584;2023-09-08T07:41:18;11.27;;;7.57;;
66521;SDS011;53349;53.538;8.584;2023-09-08T07:43:43;10.23;;;7.00;;
66521;SDS011;53349;53.538;8.584;2023-09-08T07:46:09;9.53;;;6.90;;
66521;SDS011;53349;53.538;8.584;2023-09-08T07:48:36;11.80;;;7.67;;
66521;SDS011;53349;53.538;8.584;2023-09-08T07:51:02;10.75;;;7.40;;
66521;SDS011;53349;53.538;8.584;2023-09-08T07:53:28;9.32;;;6.70;;
66521;SDS011;53349;53.538;8.584;2023-09-08T07:55:56;9.55;;;6.90;;
66521;SDS011;53349;53.538;8.584;2023-09-08T07:58:22;9.97;;;6.50;;
66521;SDS011;53349;53.538;8.584;2023-09-08T08:00:48;11.07;;;7.35;;
66521;SDS011;53349;53.538;8.584;2023-09-08T08:03:13;10.27;;;6.77;;
66521;SDS011;53349;53.538;8.584;2023-09-08T08:05:40;11.02;;;7.60;;
66521;SDS011;53349;53.538;8.584;2023-09-08T08:08:08;10.35;;;6.88;;
66521;SDS011;53349;53.538;8.584;2023-09-08T08:10:33;9.47;;;6.50;;
66521;SDS011;53349;53.538;8.584;2023-09-08T08:12:59;9.77;;;6.45;;
66521;SDS011;53349;53.538;8.584;2023-09-08T08:15:34;10.10;;;6.97;;
66521;SDS011;53349;53.538;8.584;2023-09-08T08:18:06;9.18;;;6.57;;
66521;SDS011;53349;53.538;8.584;2023-09-08T08:20:32;8.73;;;6.30;;
66521;SDS011;53349;53.538;8.584;2023-09-08T08:22:59;9.93;;;6.50;;
66521;SDS011;53349;53.538;8.584;2023-09-08T08:25:24;9.90;;;6.60;;
66521;SDS011;53349;53.538;8.584;2023-09-08T08:27:51;10.00;;;6.63;;
66521;SDS011;53349;53.538;8.584;2023-09-08T08:30:17;11.00;;;6.70;;
66521;SDS011;53349;53.538;8.584;2023-09-08T08:32:42;9.87;;;5.97;;
66521;SDS011;53349;53.538;8.584;2023-09-08T08:35:08;9.70;;;6.17;;
66521;SDS011;53349;53.538;8.584;2023-09-08T08:37:33;9.60;;;6.80;;
66521;SDS011;53349;53.538;8.584;2023-09-08T08:39:58;10.73;;;6.53;;
66521;SDS011;53349;53.538;8.584;2023-09-08T08:42:24;8.83;;;6.07;;
66521;SDS011;53349;53.538;8.584;2023-09-08T08:44:56;8.93;;;6.57;;
66521;SDS011;53349;53.538;8.584;2023-09-08T08:47:22;7.75;;;6.32;;
66521;SDS011;53349;53.538;8.584;2023-09-08T08:49:49;9.10;;;6.17;;
66521;SDS011;53349;53.538;8.584;2023-09-08T08:52:16;10.07;;;6.20;;
66521;SDS011;53349;53.538;8.584;2023-09-08T08:54:44;10.20;;;6.68;;
66521;SDS011;53349;53.538;8.584;2023-09-08T08:57:10;9.70;;;5.95;;
66521;SDS011;53349;53.538;8.584;2023-09-08T08:59:37;8.60;;;6.25;;
66521;SDS011;53349;53.538;8.584;2023-09-08T09:02:06;9.23;;;5.83;;
66521;SDS011;53349;53.538;8.584;2023-09-08T09:04:33;9.65;;;6.13;;
66521;SDS011;53349;53.538;8.584;2023-09-08T09:07:01;10.13;;;6.50;;
66521;SDS011;53349;53.538;8.584;2023-09-08T09:09:28;9.57;;;6.07;;
66521;SDS011;53349;53.538;8.584;2023-09-08T09:11:53;9.10;;;6.33;;
66521;SDS011;53349;53.538;8.584;2023-09-08T09:14:20;8.57;;;5.75;;
66521;SDS011;53349;53.538;8.584;2023-09-08T09:16:45;9.67;;;5.90;;
66521;SDS011;53349;53.538;8.584;2023-09-08T09:19:17;13.77;;;5.93;;
66521;SDS011;53349;53.538;8.584;2023-09-08T09:21:44;8.43;;;5.90;;
66521;SDS011;53349;53.538;8.584;2023-09-08T09:24:15;10.38;;;6.30;;
66521;SDS011;53349;53.538;8.584;2023-09-08T09:26:42;7.25;;;5.70;;
66521;SDS011;53349;53.538;8.584;2023-09-08T09:29:13;7.10;;;5.67;;
66521;SDS011;53349;53.538;8.584;2023-09-08T09:31:51;8.48;;;5.78;;
66521;SDS011;53349;53.538;8.584;2023-09-08T09:34:19;7.40;;;5.30;;
66521;SDS011;53349;53.538;8.584;2023-09-08T09:36:48;9.07;;;5.82;;
66521;SDS011;53349;53.538;8.584;2023-09-08T09:39:16;7.67;;;5.57;;
66521;SDS011;53349;53.538;8.584;2023-09-08T09:41:42;6.70;;;5.60;;
66521;SDS011;53349;53.538;8.584;2023-09-08T09:44:09;9.60;;;5.43;;
66521;SDS011;53349;53.538;8.584;2023-09-08T09:46:35;8.32;;;5.85;;
66521;SDS011;53349;53.538;8.584;2023-09-08T09:49:01;11.52;;;5.93;;
66521;SDS011;53349;53.538;8.584;2023-09-08T09:51:27;8.40;;;5.70;;
66521;SDS011;53349;53.538;8.584;2023-09-08T09:53:52;8.40;;;5.87;;
66521;SDS011;53349;53.538;8.584;2023-09-08T09:56:20;7.57;;;6.28;;
66521;SDS011;53349;53.538;8.584;2023-09-08T09:58:48;8.00;;;5.82;;
66521;SDS011;53349;53.538;8.584;2023-09-08T10:01:14;9.02;;;5.50;;
66521;SDS011;53349;53.538;8.584;2023-09-08T10:03:41;7.85;;;5.90;;
66521;SDS011;53349;53.538;8.584;2023-09-08T10:06:06;13.63;;;6.17;;
66521;SDS011;53349;53.538;8.584;2023-09-08T10:08:34;7.60;;;5.33;;
66521;SDS011;53349;53.538;8.584;2023-09-08T10:11:00;8.10;;;6.35;;
66521;SDS011;53349;53.538;8.584;2023-09-08T10:13:30;8.43;;;5.78;;
66521;SDS011;53349;53.538;8.584;2023-09-08T10:15:58;8.90;;;5.80;;
66521;SDS011;53349;53.538;8.584;2023-09-08T10:18:26;10.43;;;5.50;;
66521;SDS011;53349;53.538;8.584;2023-09-08T10:20:52;6.97;;;5.32;;
66521;SDS011;53349;53.538;8.584;2023-09-08T10:23:31;7.22;;;5.75;;
66521;SDS011;53349;53.538;8.584;2023-09-08T10:26:10;7.30;;;5.38;;
66521;SDS011;53349;53.538;8.584;2023-09-08T10:28:36;10.27;;;5.70;;
66521;SDS011;53349;53.538;8.584;2023-09-08T10:31:04;8.93;;;5.87;;
66521;SDS011;53349;53.538;8.584;2023-09-08T10:33:30;11.73;;;5.50;;
66521;SDS011;53349;53.538;8.584;2023-09-08T10:35:56;8.55;;;5.30;;
66521;SDS011;53349;53.538;8.584;2023-09-08T10:38:27;7.95;;;5.75;;
66521;SDS011;53349;53.538;8.584;2023-09-08T10:40:54;7.85;;;5.55;;
66521;SDS011;53349;53.538;8.584;2023-09-08T10:46:27;9.48;;;6.18;;
66521;SDS011;53349;53.538;8.584;2023-09-08T10:48:53;12.25;;;6.90;;
66521;SDS011;53349;53.538;8.584;2023-09-08T10:51:21;8.85;;;5.68;;
66521;SDS011;53349;53.538;8.584;2023-09-08T10:53:47;9.70;;;6.00;;
66521;SDS011;53349;53.538;8.584;2023-09-08T10:56:13;7.40;;;5.80;;
66521;SDS011;53349;53.538;8.584;2023-09-08T10:58:41;8.48;;;5.85;;
66521;SDS011;53349;53.538;8.584;2023-09-08T11:01:06;8.57;;;5.97;;
66521;SDS011;53349;53.538;8.584;2023-09-08T11:06:03;9.17;;;6.00;;
66521;SDS011;53349;53.538;8.584;2023-09-08T11:08:29;9.35;;;5.53;;
66521;SDS011;53349;53.538;8.584;2023-09-08T11:10:55;8.67;;;5.57;;
66521;SDS011;53349;53.538;8.584;2023-09-08T11:13:21;7.45;;;5.80;;
66521;SDS011;53349;53.538;8.584;2023-09-08T11:15:46;7.30;;;5.33;;
66521;SDS011;53349;53.538;8.584;2023-09-08T11:18:16;11.77;;;6.10;;
66521;SDS011;53349;53.538;8.584;2023-09-08T11:20:41;10.07;;;5.90;;
66521;SDS011;53349;53.538;8.584;2023-09-08T11:23:06;9.63;;;5.50;;
66521;SDS011;53349;53.538;8.584;2023-09-08T11:25:32;9.65;;;6.00;;
66521;SDS011;53349;53.538;8.584;2023-09-08T11:27:58;7.20;;;5.60;;
66521;SDS011;53349;53.538;8.584;2023-09-08T11:30:24;7.63;;;5.40;;
66521;SDS011;53349;53.538;8.584;2023-09-08T11:32:50;7.10;;;5.40;;
66521;SDS011;53349;53.538;8.584;2023-09-08T11:35:15;8.53;;;5.53;;
66521;SDS011;53349;53.538;8.584;2023-09-08T11:37:41;8.20;;;5.70;;
66521;SDS011;53349;53.538;8.584;2023-09-08T11:40:07;7.90;;;5.90;;
66521;SDS011;53349;53.538;8.584;2023-09-08T11:42:34;9.25;;;5.68;;
66521;SDS011;53349;53.538;8.584;2023-09-08T11:45:00;9.30;;;5.60;;
66521;SDS011;53349;53.538;8.584;2023-09-08T11:47:25;9.18;;;5.90;;
66521;SDS011;53349;53.538;8.584;2023-09-08T11:49:52;8.50;;;5.50;;
66521;SDS011;53349;53.538;8.584;2023-09-08T11:52:22;9.32;;;5.75;;
66521;SDS011;53349;53.538;8.584;2023-09-08T11:54:48;7.72;;;5.63;;
66521;SDS011;53349;53.538;8.584;2023-09-08T11:57:13;9.47;;;5.70;;
66521;SDS011;53349;53.538;8.584;2023-09-08T11:59:40;8.82;;;5.88;;
66521;SDS011;53349;53.538;8.584;2023-09-08T12:02:07;8.85;;;5.72;;
66521;SDS011;53349;53.538;8.584;2023-09-08T12:04:35;9.00;;;5.20;;
66521;SDS011;53349;53.538;8.584;2023-09-08T12:07:01;7.07;;;5.40;;
66521;SDS011;53349;53.538;8.584;2023-09-08T12:09:26;8.20;;;5.33;;
66521;SDS011;53349;53.538;8.584;2023-09-08T12:11:52;8.10;;;5.50;;
66521;SDS011;53349;53.538;8.584;2023-09-08T12:14:17;8.90;;;5.27;;
66521;SDS011;53349;53.538;8.584;2023-09-08T12:16:43;7.90;;;5.50;;
66521;SDS011;53349;53.538;8.584;2023-09-08T12:19:11;7.40;;;5.27;;
66521;SDS011;53349;53.538;8.584;2023-09-08T12:21:59;8.82;;;5.40;;
66521;SDS011;53349;53.538;8.584;2023-09-08T12:27:19;9.10;;;5.47;;
66521;SDS011;53349;53.538;8.584;2023-09-08T12:32:41;7.40;;;5.38;;
66521;SDS011;53349;53.538;8.584;2023-09-08T12:35:07;8.03;;;5.50;;
66521;SDS011;53349;53.538;8.584;2023-09-08T12:37:33;6.53;;;5.27;;
66521;SDS011;53349;53.538;8.584;2023-09-08T12:39:58;9.53;;;5.20;;
66521;SDS011;53349;53.538;8.584;2023-09-08T12:42:24;8.43;;;5.37;;
66521;SDS011;53349;53.538;8.584;2023-09-08T12:44:49;12.57;;;5.77;;
66521;SDS011;53349;53.538;8.584;2023-09-08T12:47:14;7.30;;;5.32;;
66521;SDS011;53349;53.538;8.584;2023-09-08T12:49:40;7.93;;;5.40;;
66521;SDS011;53349;53.538;8.584;2023-09-08T12:52:05;6.20;;;5.30;;
66521;SDS011;53349;53.538;8.584;2023-09-08T12:54:31;7.13;;;5.20;;
66521;SDS011;53349;53.538;8.584;2023-09-08T12:56:56;7.28;;;4.80;;
66521;SDS011;53349;53.538;8.584;2023-09-08T12:59:22;8.67;;;5.00;;
66521;SDS011;53349;53.538;8.584;2023-09-08T13:01:47;7.30;;;5.00;;
66521;SDS011;53349;53.538;8.584;2023-09-08T13:04:12;7.63;;;4.87;;
66521;SDS011;53349;53.538;8.584;2023-09-08T13:06:38;7.30;;;5.20;;
66521;SDS011;53349;53.538;8.584;2023-09-08T13:09:03;8.90;;;4.87;;
66521;SDS011;53349;53.538;8.584;2023-09-08T13:11:28;9.77;;;4.93;;
66521;SDS011;53349;53.538;8.584;2023-09-08T13:13:55;9.95;;;4.43;;
66521;SDS011;53349;53.538;8.584;2023-09-08T13:16:21;6.25;;;4.72;;
66521;SDS011;53349;53.538;8.584;2023-09-08T13:18:46;7.20;;;4.83;;
66521;SDS011;53349;53.538;8.584;2023-09-08T13:21:12;7.27;;;4.80;;
66521;SDS011;53349;53.538;8.584;2023-09-08T13:23:37;7.53;;;4.83;;
66521;SDS011;53349;53.538;8.584;2023-09-08T13:26:02;6.67;;;5.30;;
66521;SDS011;53349;53.538;8.584;2023-09-08T13:28:28;8.27;;;5.00;;
66521;SDS011;53349;53.538;8.584;2023-09-08T13:30:53;6.97;;;4.90;;
66521;SDS011;53349;53.538;8.584;2023-09-08T13:33:18;8.57;;;4.93;;
66521;SDS011;53349;53.538;8.584;2023-09-08T13:35:44;7.73;;;5.23;;
66521;SDS011;53349;53.538;8.584;2023-09-08T13:38:09;6.80;;;4.67;;
66521;SDS011;53349;53.538;8.584;2023-09-08T13:40:35;7.72;;;5.10;;
66521;SDS011;53349;53.538;8.584;2023-09-08T13:43:01;6.80;;;5.23;;
66521;SDS011;53349;53.538;8.584;2023-09-08T13:45:27;6.55;;;4.78;;
66521;SDS011;53349;53.538;8.584;2023-09-08T13:47:52;7.43;;;5.00;;
66521;SDS011;53349;53.538;8.584;2023-09-08T13:50:17;7.37;;;4.83;;
66521;SDS011;53349;53.538;8.584;2023-09-08T13:52:44;8.30;;;4.90;;
66521;SDS011;53349;53.538;8.584;2023-09-08T13:55:09;9.10;;;4.93;;
66521;SDS011;53349;53.538;8.584;2023-09-08T13:57:36;7.45;;;4.75;;
66521;SDS011;53349;53.538;8.584;2023-09-08T14:00:02;6.87;;;4.90;;
66521;SDS011;53349;53.538;8.584;2023-09-08T14:02:30;6.70;;;4.47;;
66521;SDS011;53349;53.538;8.584;2023-09-08T14:04:56;6.40;;;4.50;;
66521;SDS011;53349;53.538;8.584;2023-09-08T14:07:22;6.07;;;4.40;;
66521;SDS011;53349;53.538;8.584;2023-09-08T14:09:48;7.90;;;4.47;;
66521;SDS011;53349;53.538;8.584;2023-09-08T14:12:13;8.15;;;4.85;;
66521;SDS011;53349;53.538;8.584;2023-09-08T14:14:38;7.10;;;4.50;;
66521;SDS011;53349;53.538;8.584;2023-09-08T14:17:04;5.87;;;4.40;;
66521;SDS011;53349;53.538;8.584;2023-09-08T14:19:29;6.97;;;4.57;;
66521;SDS011;53349;53.538;8.584;2023-09-08T14:21:56;6.53;;;4.40;;
66521;SDS011;53349;53.538;8.584;2023-09-08T14:24:21;7.45;;;4.45;;
66521;SDS011;53349;53.538;8.584;2023-09-08T14:26:46;6.50;;;4.10;;
66521;SDS011;53349;53.538;8.584;2023-09-08T14:29:12;6.40;;;4.30;;
66521;SDS011;53349;53.538;8.584;2023-09-08T14:31:37;6.53;;;4.50;;
66521;SDS011;53349;53.538;8.584;2023-09-08T14:34:02;6.67;;;4.23;;
66521;SDS011;53349;53.538;8.584;2023-09-08T14:36:29;5.78;;;4.22;;
66521;SDS011;53349;53.538;8.584;2023-09-08T14:38:54;6.93;;;4.00;;
66521;SDS011;53349;53.538;8.584;2023-09-08T14:41:19;5.67;;;4.10;;
66521;SDS011;53349;53.538;8.584;2023-09-08T14:43:45;6.03;;;4.20;;
66521;SDS011;53349;53.538;8.584;2023-09-08T14:46:10;6.93;;;4.13;;
66521;SDS011;53349;53.538;8.584;2023-09-08T14:48:36;6.40;;;3.90;;
66521;SDS011;53349;53.538;8.584;2023-09-08T14:51:01;5.70;;;3.95;;
66521;SDS011;53349;53.538;8.584;2023-09-08T14:53:26;6.33;;;4.10;;
66521;SDS011;53349;53.538;8.584;2023-09-08T14:55:52;5.27;;;3.87;;